Time;durP1;ratioP1;P1;durP2;ratioP2;P2;SDS_P1;SDS_P2;PMS_P1;PMS_P2;Temp;Humidity;BMP_temperature;BMP_pressure;BME280_temperature;BME280_humidity;BME280_pressure;Samples;Min_cycle;Max_cycle;Signal;HPM_P1;HPM_P2
2023/04/16 00:00:12;;;;;;;4.30;3.93;;;8.00;99.90;;;;;;5154073;27;20862;-68
2023/04/16 00:02:38;;;;;;;4.80;4.20;;;8.10;99.90;;;;;;5154195;27;20804;-67
2023/04/16 00:05:06;;;;;;;4.37;4.17;;;8.10;99.90;;;;;;5153677;27;20592;-68
2023/04/16 00:07:34;;;;;;;4.10;3.87;;;8.10;99.90;;;;;;5153681;27;21011;-68
2023/04/16 00:10:01;;;;;;;4.73;4.47;;;8.10;99.90;;;;;;5149134;27;20451;-68
2023/04/16 00:12:28;;;;;;;3.00;2.90;;;8.10;99.90;;;;;;5153996;27;20988;-67
2023/04/16 00:14:55;;;;;;;5.77;5.33;;;8.20;99.90;;;;;;5153789;27;20470;-68
2023/04/16 00:17:22;;;;;;;4.40;4.20;;;8.20;99.90;;;;;;5153744;27;20467;-69
2023/04/16 00:19:49;;;;;;;4.10;3.90;;;8.10;99.90;;;;;;5154095;27;20489;-68
2023/04/16 00:22:17;;;;;;;8.50;5.10;;;8.10;99.90;;;;;;5153476;27;20997;-68
2023/04/16 00:24:45;;;;;;;4.93;4.37;;;8.10;99.90;;;;;;5153956;27;20949;-68
2023/04/16 00:27:13;;;;;;;5.10;4.80;;;8.10;99.90;;;;;;5153756;27;20516;-68
2023/04/16 00:29:41;;;;;;;21.37;5.27;;;8.10;99.90;;;;;;5153943;27;20455;-68
2023/04/16 00:32:07;;;;;;;4.57;4.37;;;8.10;99.90;;;;;;5153273;27;20454;-68
2023/04/16 00:34:35;;;;;;;4.97;4.67;;;8.10;99.90;;;;;;5153867;27;20516;-68
2023/04/16 00:37:02;;;;;;;4.63;4.23;;;8.10;99.90;;;;;;5153555;27;20451;-68
2023/04/16 00:39:29;;;;;;;4.87;4.57;;;8.10;99.90;;;;;;5153582;27;20488;-68
2023/04/16 00:41:57;;;;;;;2.73;2.63;;;8.00;99.90;;;;;;5153453;27;20528;-68
2023/04/16 00:44:24;;;;;;;5.90;4.03;;;8.00;99.90;;;;;;5153602;27;20555;-68
2023/04/16 00:46:51;;;;;;;4.80;3.90;;;8.10;99.90;;;;;;5149472;27;20459;-68
2023/04/16 00:49:18;;;;;;;5.57;5.07;;;8.10;99.90;;;;;;5153068;27;20555;-69
2023/04/16 00:51:46;;;;;;;3.50;3.30;;;8.00;99.90;;;;;;5153318;27;20470;-68
2023/04/16 00:54:12;;;;;;;3.50;3.30;;;8.00;99.90;;;;;;5153137;27;20491;-68
2023/04/16 00:56:40;;;;;;;2.57;2.37;;;8.10;99.90;;;;;;5153316;27;20872;-68
2023/04/16 00:59:09;;;;;;;4.13;3.50;;;8.10;99.90;;;;;;5153037;27;20455;-69
2023/04/16 01:01:36;;;;;;;14.40;3.97;;;8.10;99.90;;;;;;5150941;27;20478;-68
2023/04/16 01:04:05;;;;;;;5.33;5.03;;;8.20;99.90;;;;;;5144518;27;20850;-68
2023/04/16 01:06:32;;;;;;;4.40;4.00;;;8.10;99.90;;;;;;5152525;27;20976;-68
2023/04/16 01:08:59;;;;;;;4.50;4.10;;;8.10;99.90;;;;;;5152732;27;20495;-68
2023/04/16 01:11:27;;;;;;;3.20;3.00;;;8.10;99.90;;;;;;5151906;27;20546;-68
2023/04/16 01:13:54;;;;;;;5.43;4.97;;;8.10;99.90;;;;;;5152665;27;20554;-68
2023/04/16 01:16:23;;;;;;;5.90;4.90;;;8.10;99.90;;;;;;5152466;27;20450;-68
2023/04/16 01:18:51;;;;;;;2.80;2.60;;;8.10;99.90;;;;;;5152800;27;20524;-68
2023/04/16 01:21:19;;;;;;;7.23;4.47;;;8.10;99.90;;;;;;5152409;27;20538;-69
2023/04/16 01:23:46;;;;;;;3.67;3.37;;;8.10;99.90;;;;;;5152783;27;20500;-68
2023/04/16 01:26:13;;;;;;;4.30;3.90;;;8.10;99.90;;;;;;5152376;27;20507;-67
2023/04/16 01:28:40;;;;;;;7.20;5.17;;;8.10;99.90;;;;;;5152216;27;21279;-67
2023/04/16 01:31:07;;;;;;;3.77;3.20;;;8.10;99.90;;;;;;5147905;27;20849;-68
2023/04/16 01:33:35;;;;;;;3.53;3.30;;;8.10;99.90;;;;;;5152373;27;20560;-68
2023/04/16 01:36:03;;;;;;;5.93;3.60;;;8.10;99.90;;;;;;5152148;27;20463;-68
2023/04/16 01:38:32;;;;;;;5.50;5.00;;;8.10;99.90;;;;;;5152510;27;20473;-68
2023/04/16 01:40:59;;;;;;;6.33;4.57;;;8.10;99.90;;;;;;5152182;27;20872;-68
2023/04/16 01:43:26;;;;;;;3.10;2.90;;;8.20;99.90;;;;;;5152101;27;20521;-69
2023/04/16 01:46:08;;;;;;;5.77;3.50;;;8.10;99.90;;;;;;5152201;27;20507;-68
2023/04/16 01:48:35;;;;;;;4.20;3.60;;;8.20;99.90;;;;;;5151956;27;20490;-69
2023/04/16 01:51:03;;;;;;;21.73;3.97;;;8.10;99.90;;;;;;5152204;27;20464;-68
2023/04/16 01:53:32;;;;;;;3.10;2.90;;;8.00;99.90;;;;;;5151630;27;20961;-68
2023/04/16 01:55:59;;;;;;;4.20;3.90;;;8.10;99.90;;;;;;5151906;27;20451;-68
2023/04/16 01:58:29;;;;;;;1.80;1.70;;;8.10;99.90;;;;;;5151226;27;21021;-68
2023/04/16 02:00:56;;;;;;;6.20;4.67;;;8.10;99.90;;;;;;5148106;27;20896;-69
2023/04/16 02:03:23;;;;;;;4.27;3.87;;;8.20;99.90;;;;;;5148901;27;20459;-68
2023/04/16 02:05:51;;;;;;;3.53;3.30;;;8.10;99.90;;;;;;5149908;27;20458;-69
2023/04/16 02:08:18;;;;;;;13.20;5.40;;;8.10;99.90;;;;;;5149670;27;20495;-68
2023/04/16 02:10:47;;;;;;;4.90;4.00;;;8.00;99.90;;;;;;5139249;27;20484;-68
2023/04/16 02:13:15;;;;;;;12.53;5.10;;;8.10;99.90;;;;;;5150113;27;20463;-68
2023/04/16 02:15:46;;;;;;;6.00;4.43;;;8.10;99.90;;;;;;5149588;27;20463;-68
2023/04/16 02:18:13;;;;;;;5.03;4.17;;;8.10;99.90;;;;;;5149455;27;20465;-68
2023/04/16 02:20:41;;;;;;;4.40;3.93;;;8.10;99.90;;;;;;5149378;27;20459;-68
2023/04/16 02:23:09;;;;;;;12.23;5.13;;;8.10;99.90;;;;;;5149860;27;20466;-68
2023/04/16 02:25:40;;;;;;;2.67;2.47;;;8.10;99.90;;;;;;5149628;27;20945;-69
2023/04/16 02:28:09;;;;;;;9.20;3.53;;;8.10;99.90;;;;;;5149402;27;20586;-68
2023/04/16 02:30:37;;;;;;;7.43;4.37;;;8.10;99.90;;;;;;5146832;27;20831;-67
2023/04/16 02:33:04;;;;;;;5.33;4.63;;;8.10;99.90;;;;;;5149857;27;20447;-68
2023/04/16 02:35:32;;;;;;;3.50;2.97;;;8.10;99.90;;;;;;5149923;27;20499;-68
2023/04/16 02:37:59;;;;;;;3.97;3.73;;;8.10;99.90;;;;;;5149500;27;20546;-68
2023/04/16 02:40:26;;;;;;;3.57;3.23;;;8.10;99.90;;;;;;5149398;27;20467;-68
2023/04/16 02:42:53;;;;;;;4.93;4.43;;;8.10;99.90;;;;;;5149330;27;20475;-68
2023/04/16 02:45:22;;;;;;;2.17;2.07;;;8.10;99.90;;;;;;5149155;27;20467;-68
2023/04/16 02:47:50;;;;;;;7.50;3.83;;;8.10;99.90;;;;;;5149016;27;20455;-67
2023/04/16 02:50:17;;;;;;;3.80;3.53;;;8.20;99.90;;;;;;5149489;27;20496;-68
2023/04/16 02:52:44;;;;;;;3.37;3.07;;;8.20;99.90;;;;;;5149041;27;20450;-68
2023/04/16 02:55:11;;;;;;;4.77;4.37;;;8.20;99.90;;;;;;5149170;27;20479;-68
2023/04/16 02:57:41;;;;;;;3.40;3.20;;;8.30;99.90;;;;;;5149168;27;20479;-68
2023/04/16 03:00:09;;;;;;;5.70;4.83;;;8.20;99.90;;;;;;5148639;27;20837;-68
2023/04/16 03:02:37;;;;;;;13.73;6.37;;;8.20;99.90;;;;;;5141757;27;20467;-68
2023/04/16 03:05:04;;;;;;;6.33;5.73;;;8.20;99.90;;;;;;5150365;27;20495;-68
2023/04/16 03:07:31;;;;;;;3.57;3.27;;;8.20;99.90;;;;;;5143331;27;20507;-68
2023/04/16 03:09:58;;;;;;;1.83;1.70;;;8.20;99.90;;;;;;5150473;27;20777;-69
2023/04/16 03:12:25;;;;;;;6.60;6.00;;;8.30;99.90;;;;;;5150440;27;20487;-68
2023/04/16 03:14:52;;;;;;;7.47;3.87;;;8.20;99.90;;;;;;5150821;27;20467;-68
2023/04/16 03:17:19;;;;;;;2.23;2.13;;;8.20;99.90;;;;;;5150118;27;20929;-67
2023/04/16 03:19:49;;;;;;;4.43;4.13;;;8.20;99.90;;;;;;5150611;27;20549;-68
2023/04/16 03:22:16;;;;;;;13.27;5.43;;;8.20;99.90;;;;;;5150549;27;20831;-68
2023/04/16 03:24:44;;;;;;;4.13;3.77;;;8.20;99.90;;;;;;5150428;27;20459;-68
2023/04/16 03:27:11;;;;;;;5.43;4.43;;;8.30;99.90;;;;;;5150239;27;20459;-68
2023/04/16 03:29:38;;;;;;;4.87;4.10;;;8.30;99.90;;;;;;5144180;27;20472;-68
2023/04/16 03:32:06;;;;;;;3.70;3.27;;;8.30;99.90;;;;;;5141019;27;20502;-68
2023/04/16 03:34:33;;;;;;;2.57;2.30;;;8.30;99.90;;;;;;5150313;27;20500;-68
2023/04/16 03:37:01;;;;;;;8.77;3.67;;;8.30;99.90;;;;;;5150272;27;20565;-68
2023/04/16 03:39:28;;;;;;;3.27;3.07;;;8.30;99.90;;;;;;5150130;27;20960;-68
2023/04/16 03:41:55;;;;;;;2.90;2.30;;;8.30;99.90;;;;;;5150091;27;20488;-68
2023/04/16 03:44:22;;;;;;;2.73;2.60;;;8.30;99.90;;;;;;5150007;27;20479;-68
2023/04/16 03:46:49;;;;;;;3.63;3.33;;;8.30;99.90;;;;;;5150055;27;20456;-68
2023/04/16 03:49:16;;;;;;;4.33;3.90;;;8.30;99.90;;;;;;5150308;27;20588;-68
2023/04/16 03:51:43;;;;;;;8.17;3.17;;;8.30;99.90;;;;;;5149985;27;20459;-68
2023/04/16 03:54:11;;;;;;;3.93;3.33;;;8.40;99.90;;;;;;5150104;27;20555;-68
2023/04/16 03:56:40;;;;;;;4.13;3.77;;;8.30;99.90;;;;;;5149634;27;20518;-68
2023/04/16 03:59:08;;;;;;;3.67;3.37;;;8.30;99.90;;;;;;5150394;27;20463;-68
2023/04/16 04:01:35;;;;;;;20.93;6.27;;;8.30;99.90;;;;;;5149836;27;20459;-68
2023/04/16 04:04:02;;;;;;;8.30;5.60;;;8.40;99.90;;;;;;5149903;27;20460;-68
2023/04/16 04:06:28;;;;;;;2.80;2.20;;;8.40;99.90;;;;;;5149669;27;20454;-68
2023/04/16 04:08:55;;;;;;;3.23;3.03;;;8.30;99.90;;;;;;5148925;27;20874;-68
2023/04/16 04:11:24;;;;;;;4.50;3.87;;;8.40;99.90;;;;;;5149139;27;20466;-68
2023/04/16 04:13:50;;;;;;;7.80;5.77;;;8.30;99.90;;;;;;5149244;27;20470;-68
2023/04/16 04:16:18;;;;;;;12.97;6.07;;;8.40;99.90;;;;;;5149137;27;20508;-68
2023/04/16 04:18:46;;;;;;;11.73;5.43;;;8.30;99.90;;;;;;5149390;27;20590;-68
2023/04/16 04:21:12;;;;;;;4.23;3.83;;;8.30;99.90;;;;;;5149318;27;20462;-68
2023/04/16 04:23:40;;;;;;;5.87;4.10;;;8.30;99.90;;;;;;5149054;27;20500;-69
2023/04/16 04:26:08;;;;;;;11.03;4.10;;;8.30;99.90;;;;;;5149415;27;20870;-68
2023/04/16 04:28:36;;;;;;;5.70;5.33;;;8.30;99.90;;;;;;5148991;27;21002;-68
2023/04/16 04:31:03;;;;;;;4.07;3.70;;;8.30;99.90;;;;;;5140511;27;20459;-68
2023/04/16 04:33:30;;;;;;;9.47;3.57;;;8.30;99.90;;;;;;5149063;27;20475;-68
2023/04/16 04:35:57;;;;;;;14.20;5.97;;;8.30;99.90;;;;;;5149033;27;20463;-68
2023/04/16 04:38:24;;;;;;;18.20;5.77;;;8.30;99.90;;;;;;5148897;27;20454;-68
2023/04/16 04:40:51;;;;;;;10.93;6.60;;;8.30;99.90;;;;;;5151930;27;20542;-69
2023/04/16 04:43:18;;;;;;;8.43;6.40;;;8.30;99.90;;;;;;5153191;27;20471;-68
2023/04/16 04:45:49;;;;;;;6.20;3.87;;;8.40;99.90;;;;;;5152756;27;20463;-68
2023/04/16 04:48:16;;;;;;;10.40;4.13;;;8.40;99.90;;;;;;5152551;27;20480;-68
2023/04/16 04:50:45;;;;;;;7.70;5.23;;;8.40;99.90;;;;;;5152550;27;20855;-69
2023/04/16 04:53:13;;;;;;;4.80;4.10;;;8.40;99.90;;;;;;5152737;27;20466;-68
2023/04/16 04:55:40;;;;;;;3.50;3.20;;;8.40;99.90;;;;;;5152698;27;20579;-69
2023/04/16 04:58:07;;;;;;;3.97;3.63;;;8.30;99.90;;;;;;5152107;27;20474;-68
2023/04/16 05:00:35;;;;;;;5.50;5.13;;;8.40;99.90;;;;;;5152648;27;20478;-68
2023/04/16 05:03:05;;;;;;;4.37;4.00;;;8.30;99.90;;;;;;5152371;27;20542;-68
2023/04/16 05:05:32;;;;;;;10.63;6.33;;;8.40;99.90;;;;;;5152170;27;20523;-68
2023/04/16 05:07:59;;;;;;;5.43;4.87;;;8.30;99.90;;;;;;5152354;27;20500;-69
2023/04/16 05:10:27;;;;;;;3.80;3.50;;;8.30;99.90;;;;;;5151735;27;20498;-68
2023/04/16 05:12:54;;;;;;;5.10;4.63;;;8.40;99.90;;;;;;5139755;27;21021;-69
2023/04/16 05:15:21;;;;;;;11.40;7.80;;;8.40;99.90;;;;;;5142258;27;20858;-69
2023/04/16 05:17:48;;;;;;;7.70;5.60;;;8.40;99.90;;;;;;5152579;27;20484;-69
2023/04/16 05:20:17;;;;;;;5.47;5.07;;;8.30;99.90;;;;;;5153056;27;20462;-68
2023/04/16 05:22:44;;;;;;;13.30;7.37;;;8.40;99.90;;;;;;5152772;27;21014;-69
2023/04/16 05:25:11;;;;;;;5.47;4.93;;;8.40;99.90;;;;;;5139421;27;20493;-68
2023/04/16 05:27:38;;;;;;;4.80;4.50;;;8.40;99.90;;;;;;5152893;27;20451;-69
2023/04/16 05:30:06;;;;;;;7.90;6.37;;;8.40;99.90;;;;;;5152304;27;20513;-69
2023/04/16 05:32:33;;;;;;;7.80;4.70;;;8.40;99.90;;;;;;5152339;27;20473;-69
2023/04/16 05:35:00;;;;;;;4.33;4.03;;;8.40;99.90;;;;;;5152564;27;20451;-70
2023/04/16 05:37:28;;;;;;;7.40;5.93;;;8.40;99.90;;;;;;5152364;27;20456;-69
2023/04/16 05:39:55;;;;;;;4.03;3.73;;;8.40;99.90;;;;;;5152239;27;20463;-69
2023/04/16 05:42:22;;;;;;;5.33;4.93;;;8.50;99.90;;;;;;5152398;27;20467;-69
2023/04/16 05:44:50;;;;;;;6.70;5.50;;;8.50;99.90;;;;;;5152092;27;20863;-69
2023/04/16 05:47:18;;;;;;;5.40;5.00;;;8.50;99.90;;;;;;5151842;27;20482;-69
2023/04/16 05:49:46;;;;;;;3.87;3.47;;;8.60;99.90;;;;;;5152476;27;20494;-69
2023/04/16 05:52:13;;;;;;;11.03;4.73;;;8.50;99.90;;;;;;5151167;27;20883;-69
2023/04/16 05:54:41;;;;;;;8.93;6.27;;;8.50;99.90;;;;;;5151904;27;20558;-69
2023/04/16 05:57:10;;;;;;;8.00;6.30;;;8.60;99.90;;;;;;5151331;27;20463;-69
2023/04/16 05:59:37;;;;;;;3.47;3.30;;;8.60;99.90;;;;;;5151553;27;20468;-69
2023/04/16 06:02:04;;;;;;;11.03;6.53;;;8.70;99.90;;;;;;5151715;27;20452;-69
2023/04/16 06:04:31;;;;;;;6.13;5.50;;;8.70;99.90;;;;;;5151969;27;20843;-69
2023/04/16 06:06:58;;;;;;;8.40;4.80;;;8.70;99.90;;;;;;5151305;27;20459;-69
2023/04/16 06:09:25;;;;;;;5.83;5.27;;;8.70;99.90;;;;;;5151638;27;20869;-69
2023/04/16 06:11:54;;;;;;;15.10;7.67;;;8.70;99.90;;;;;;5151707;27;20463;-69
2023/04/16 06:14:21;;;;;;;9.30;6.10;;;8.70;99.90;;;;;;5151540;27;20487;-69
2023/04/16 06:16:47;;;;;;;6.33;5.80;;;8.60;99.90;;;;;;5150409;27;20984;-69
2023/04/16 06:19:14;;;;;;;9.97;7.77;;;8.70;99.90;;;;;;5150154;27;20463;-69
2023/04/16 06:21:41;;;;;;;8.97;6.03;;;8.60;99.90;;;;;;5149569;27;20866;-69
2023/04/16 06:24:08;;;;;;;8.50;5.60;;;8.60;99.90;;;;;;5149712;27;20459;-69
2023/04/16 06:26:34;;;;;;;10.07;5.37;;;8.50;99.90;;;;;;5149946;27;20464;-69
2023/04/16 06:29:03;;;;;;;6.87;5.07;;;8.60;99.90;;;;;;5147821;27;20447;-69
2023/04/16 06:31:30;;;;;;;6.13;4.33;;;8.60;99.90;;;;;;5141750;27;20455;-69
2023/04/16 06:33:57;;;;;;;4.80;4.50;;;8.60;99.90;;;;;;5149695;27;21017;-69
2023/04/16 06:36:23;;;;;;;4.60;4.20;;;8.60;99.90;;;;;;5149565;27;20539;-69
2023/04/16 06:38:50;;;;;;;10.43;4.37;;;8.60;99.90;;;;;;5149227;27;20527;-69
2023/04/16 06:41:17;;;;;;;17.47;8.03;;;8.60;99.90;;;;;;5149444;27;20551;-69
2023/04/16 06:43:44;;;;;;;13.90;8.10;;;8.60;99.90;;;;;;5149169;27;20471;-69
2023/04/16 06:46:12;;;;;;;4.00;3.57;;;8.60;99.90;;;;;;5149482;27;20454;-69
2023/04/16 06:48:39;;;;;;;8.27;5.43;;;8.70;99.90;;;;;;5145841;27;20457;-69
2023/04/16 06:51:06;;;;;;;7.40;5.60;;;8.70;99.90;;;;;;5149376;27;20490;-68
2023/04/16 06:53:33;;;;;;;8.83;5.47;;;8.70;99.90;;;;;;5149245;27;20459;-69
2023/04/16 06:56:01;;;;;;;7.90;5.73;;;8.80;99.90;;;;;;5150379;27;20465;-69
2023/04/16 06:58:29;;;;;;;8.07;7.20;;;8.80;99.90;;;;;;5142535;27;20468;-69
2023/04/16 07:00:57;;;;;;;12.77;6.40;;;8.80;99.90;;;;;;5150830;27;20448;-69
2023/04/16 07:03:26;;;;;;;12.53;7.93;;;8.80;99.90;;;;;;5150883;27;20459;-68
2023/04/16 07:05:53;;;;;;;9.07;8.17;;;8.90;99.90;;;;;;5150611;27;20483;-69
2023/04/16 07:08:20;;;;;;;6.23;5.33;;;8.80;99.90;;;;;;5150211;27;20467;-70
2023/04/16 07:10:47;;;;;;;13.60;4.70;;;8.80;99.90;;;;;;5150043;27;20483;-69
2023/04/16 07:13:14;;;;;;;9.47;5.37;;;8.80;99.90;;;;;;5150948;27;20459;-68
2023/04/16 07:15:42;;;;;;;4.63;4.23;;;8.80;99.90;;;;;;5150629;27;20447;-69
2023/04/16 07:18:09;;;;;;;13.40;8.17;;;8.80;99.90;;;;;;5150514;27;20459;-69
2023/04/16 07:20:37;;;;;;;11.73;8.23;;;8.80;99.90;;;;;;5150279;27;20554;-69
2023/04/16 07:23:04;;;;;;;9.47;6.67;;;8.80;99.90;;;;;;5150375;27;20994;-69
2023/04/16 07:25:30;;;;;;;22.33;11.40;;;8.80;99.90;;;;;;5150601;27;20463;-70
2023/04/16 07:27:57;;;;;;;10.23;7.30;;;8.70;99.90;;;;;;5150449;27;20488;-69
2023/04/16 07:30:24;;;;;;;18.93;8.80;;;8.70;99.90;;;;;;5150097;27;20514;-70
2023/04/16 07:32:51;;;;;;;2.33;2.23;;;8.80;99.90;;;;;;5150413;27;20483;-69
2023/04/16 07:35:18;;;;;;;17.43;9.13;;;8.90;99.90;;;;;;5150397;27;20491;-69
2023/04/16 07:37:47;;;;;;;7.60;5.50;;;8.90;99.90;;;;;;5150473;27;20459;-69
2023/04/16 07:40:15;;;;;;;18.40;9.90;;;8.80;99.90;;;;;;5150407;27;20968;-68
2023/04/16 07:42:43;;;;;;;7.97;5.97;;;8.90;99.90;;;;;;5150116;27;20463;-69
2023/04/16 07:45:10;;;;;;;10.60;5.40;;;8.80;99.90;;;;;;5146638;27;20863;-68
2023/04/16 07:47:37;;;;;;;8.63;6.47;;;8.80;99.90;;;;;;5149958;27;20953;-69
2023/04/16 07:50:04;;;;;;;7.17;4.90;;;8.80;99.90;;;;;;5149938;27;20518;-68
2023/04/16 07:52:31;;;;;;;8.37;6.17;;;8.90;99.90;;;;;;5150232;27;20550;-69
2023/04/16 07:55:01;;;;;;;7.33;6.73;;;8.90;99.90;;;;;;5150331;27;20486;-70
2023/04/16 07:57:28;;;;;;;4.83;3.77;;;8.90;99.90;;;;;;5150163;27;20459;-70
2023/04/16 07:59:55;;;;;;;12.50;9.40;;;8.90;99.90;;;;;;5150151;27;20515;-69
2023/04/16 08:02:22;;;;;;;6.70;6.10;;;8.90;99.90;;;;;;5148900;27;20455;-70
2023/04/16 08:04:49;;;;;;;23.07;9.93;;;8.90;99.90;;;;;;5150017;27;20459;-68
2023/04/16 08:07:15;;;;;;;4.93;4.50;;;8.90;99.90;;;;;;5149566;27;20466;-69
2023/04/16 08:09:48;;;;;;;8.50;6.57;;;8.90;99.90;;;;;;5148131;27;20504;-69
2023/04/16 08:12:17;;;;;;;7.40;4.80;;;9.00;99.90;;;;;;5148470;27;20528;-69
2023/04/16 08:14:44;;;;;;;11.37;8.90;;;8.90;99.90;;;;;;5149794;27;20455;-69
2023/04/16 08:17:11;;;;;;;12.60;7.07;;;9.00;99.90;;;;;;5152911;27;20522;-69
2023/04/16 08:19:38;;;;;;;13.83;9.00;;;9.00;99.90;;;;;;5152946;27;20921;-69
2023/04/16 08:22:06;;;;;;;5.33;4.83;;;9.10;99.90;;;;;;5152411;27;20455;-69
2023/04/16 08:24:33;;;;;;;6.60;5.80;;;9.20;99.90;;;;;;5152255;27;20478;-69
2023/04/16 08:27:00;;;;;;;11.50;8.67;;;9.20;99.90;;;;;;5152050;27;20462;-69
2023/04/16 08:29:29;;;;;;;11.57;7.23;;;9.20;99.90;;;;;;5152195;27;20499;-69
2023/04/16 08:31:56;;;;;;;12.40;8.83;;;9.40;99.90;;;;;;5151741;27;20587;-70
2023/04/16 08:34:22;;;;;;;23.03;8.37;;;9.40;99.90;;;;;;5152259;27;20470;-69
2023/04/16 08:36:50;;;;;;;3.43;3.23;;;9.40;99.90;;;;;;5152097;27;20859;-70
2023/04/16 08:39:17;;;;;;;10.50;5.80;;;9.50;99.90;;;;;;5152572;27;21038;-69
2023/04/16 08:41:46;;;;;;;16.73;6.80;;;9.60;99.90;;;;;;5153519;27;20454;-69
2023/04/16 08:44:19;;;;;;;18.70;10.00;;;9.60;99.90;;;;;;5153177;27;20483;-69
2023/04/16 08:46:48;;;;;;;10.33;5.23;;;9.40;99.90;;;;;;5152977;27;20810;-70
2023/04/16 08:49:17;;;;;;;7.90;4.93;;;9.40;99.90;;;;;;5151647;27;20546;-69
2023/04/16 08:51:49;;;;;;;12.10;8.77;;;9.50;99.90;;;;;;5151382;27;20543;-69
2023/04/16 08:54:31;;;;;;;25.20;12.63;;;9.50;99.90;;;;;;5151470;27;20531;-69
2023/04/16 08:56:59;;;;;;;19.37;10.67;;;9.40;99.90;;;;;;5152328;27;20813;-69
2023/04/16 08:59:26;;;;;;;7.50;5.20;;;9.40;99.90;;;;;;5153376;27;20930;-69
2023/04/16 09:01:57;;;;;;;15.00;4.80;;;9.50;99.90;;;;;;5153095;27;20455;-70
2023/04/16 09:04:28;;;;;;;3.60;3.30;;;9.50;99.90;;;;;;5153129;27;20545;-69
2023/04/16 09:06:56;;;;;;;5.80;5.23;;;9.70;99.90;;;;;;5152503;27;20490;-69
2023/04/16 09:09:23;;;;;;;8.73;5.67;;;9.80;99.90;;;;;;5146162;27;20533;-70
2023/04/16 09:11:52;;;;;;;12.63;8.17;;;9.90;99.90;;;;;;5150720;27;20495;-70
2023/04/16 09:14:19;;;;;;;17.93;8.10;;;10.00;99.90;;;;;;5151170;27;20540;-69
2023/04/16 09:16:47;;;;;;;5.73;5.10;;;10.10;99.90;;;;;;5145467;27;20455;-69
2023/04/16 09:19:15;;;;;;;9.50;6.10;;;10.40;99.90;;;;;;5150982;27;20455;-70
2023/04/16 09:21:45;;;;;;;14.33;7.57;;;10.60;99.90;;;;;;5148530;27;20485;-69
2023/04/16 09:24:12;;;;;;;14.03;8.20;;;10.80;99.90;;;;;;5145823;27;20689;-70
2023/04/16 09:26:40;;;;;;;6.70;5.40;;;11.00;99.90;;;;;;5151196;27;20467;-70
2023/04/16 09:29:08;;;;;;;16.60;7.20;;;11.00;99.90;;;;;;5151106;27;20502;-70
2023/04/16 09:31:35;;;;;;;7.03;6.13;;;11.10;99.90;;;;;;5151313;27;20566;-70
2023/04/16 09:34:03;;;;;;;4.40;4.10;;;11.10;99.90;;;;;;5152248;27;20460;-69
2023/04/16 09:36:33;;;;;;;14.27;7.00;;;11.00;99.90;;;;;;5152559;27;20456;-69
2023/04/16 09:39:01;;;;;;;9.87;8.13;;;10.80;99.90;;;;;;5152272;27;20511;-70
2023/04/16 09:41:29;;;;;;;13.00;8.53;;;10.50;99.90;;;;;;5152337;27;20464;-70
2023/04/16 09:43:57;;;;;;;18.23;11.30;;;10.30;99.90;;;;;;5152459;27;20478;-68
2023/04/16 09:46:25;;;;;;;18.20;10.07;;;10.30;99.90;;;;;;5152241;27;20459;-68
2023/04/16 09:48:52;;;;;;;10.03;6.03;;;10.40;99.90;;;;;;5152294;27;20455;-68
2023/04/16 09:51:19;;;;;;;13.63;8.70;;;10.50;99.90;;;;;;5152305;27;20499;-68
2023/04/16 09:53:51;;;;;;;21.23;12.17;;;10.70;99.90;;;;;;5152107;27;20490;-67
2023/04/16 09:56:23;;;;;;;6.87;6.07;;;11.10;99.90;;;;;;5151812;27;20953;-68
2023/04/16 09:58:50;;;;;;;17.30;11.70;;;11.40;99.90;;;;;;5151938;27;20482;-68
2023/04/16 10:01:19;;;;;;;13.30;10.60;;;11.80;99.90;;;;;;5151769;27;20459;-68
2023/04/16 10:03:50;;;;;;;14.27;12.50;;;12.10;99.90;;;;;;5151855;27;20978;-68
2023/04/16 10:06:18;;;;;;;15.80;12.53;;;12.20;99.90;;;;;;5143525;27;20455;-67
2023/04/16 10:08:49;;;;;;;13.47;12.27;;;12.60;99.90;;;;;;5151696;27;20710;-68
2023/04/16 10:11:16;;;;;;;14.77;13.30;;;12.90;99.90;;;;;;5139097;27;21053;-70
2023/04/16 10:13:44;;;;;;;15.60;13.37;;;12.80;99.90;;;;;;5151618;27;20459;-69
2023/04/16 10:16:11;;;;;;;15.03;13.63;;;12.70;99.90;;;;;;5151632;27;20455;-68
2023/04/16 10:18:39;;;;;;;16.80;13.90;;;12.60;99.90;;;;;;5151715;27;20473;-68
2023/04/16 10:21:06;;;;;;;14.90;13.80;;;12.60;99.90;;;;;;5150498;27;20455;-69
2023/04/16 10:23:34;;;;;;;26.87;17.03;;;12.70;99.90;;;;;;5149560;27;20462;-69
2023/04/16 10:26:02;;;;;;;18.40;15.47;;;13.00;99.90;;;;;;5150190;27;20458;-69
2023/04/16 10:28:34;;;;;;;21.63;17.57;;;13.30;99.90;;;;;;5151224;27;20958;-68
2023/04/16 10:31:02;;;;;;;16.97;15.57;;;13.30;99.90;;;;;;5150919;27;20490;-69
2023/04/16 10:33:31;;;;;;;15.27;14.07;;;13.20;99.90;;;;;;5149778;27;20459;-69
2023/04/16 10:36:12;;;;;;;20.83;14.37;;;13.00;99.90;;;;;;5151135;27;20511;-69
2023/04/16 10:38:42;;;;;;;16.43;14.60;;;13.10;99.90;;;;;;5137112;27;20477;-70
2023/04/16 10:41:11;;;;;;;16.83;15.37;;;13.80;99.90;;;;;;5151404;27;20447;-70
2023/04/16 10:43:43;;;;;;;16.03;14.60;;;14.20;99.90;;;;;;5151010;27;20587;-69
2023/04/16 10:46:23;;;;;;;16.70;15.50;;;14.20;99.90;;;;;;5150198;27;20466;-70
2023/04/16 10:48:52;;;;;;;18.20;16.73;;;14.10;99.90;;;;;;5149123;27;20803;-69
2023/04/16 10:51:28;;;;;;;13.60;13.00;;;13.90;99.90;;;;;;5150112;27;21036;-70
2023/04/16 10:53:56;;;;;;;20.43;18.27;;;13.80;99.90;;;;;;5151227;27;20487;-69
2023/04/16 10:56:25;;;;;;;18.23;16.90;;;14.50;99.90;;;;;;5137225;27;20546;-71
2023/04/16 10:58:54;;;;;;;18.30;16.70;;;14.90;99.90;;;;;;5150604;27;20512;-69
2023/04/16 11:01:30;;;;;;;14.57;13.77;;;14.60;99.90;;;;;;5150733;27;20498;-70
2023/04/16 11:03:58;;;;;;;17.40;16.17;;;14.20;99.90;;;;;;5150852;27;20455;-70
2023/04/16 11:06:26;;;;;;;22.00;19.63;;;14.20;99.90;;;;;;5150449;27;20933;-69
2023/04/16 11:08:54;;;;;;;17.23;16.03;;;14.10;99.90;;;;;;5149597;27;20480;-69
2023/04/16 11:11:22;;;;;;;14.93;14.23;;;13.80;99.90;;;;;;5145648;27;20543;-69
2023/04/16 11:13:54;;;;;;;16.33;14.93;;;13.80;99.90;;;;;;5150369;27;20512;-69
2023/04/16 11:16:21;;;;;;;12.27;11.77;;;13.80;99.90;;;;;;5146751;27;20505;-69
2023/04/16 11:18:48;;;;;;;12.00;11.50;;;14.10;99.90;;;;;;5150658;27;20539;-68
2023/04/16 11:21:15;;;;;;;13.63;13.03;;;14.40;99.90;;;;;;5149503;27;20722;-69
2023/04/16 11:23:49;;;;;;;15.80;14.80;;;14.70;99.90;;;;;;5150495;27;20484;-69
2023/04/16 11:26:27;;;;;;;20.40;18.83;;;14.70;99.90;;;;;;5150429;27;20891;-69
2023/04/16 11:28:56;;;;;;;14.47;13.77;;;14.30;99.90;;;;;;5150371;27;20459;-70
2023/04/16 11:31:23;;;;;;;16.00;14.90;;;14.00;99.90;;;;;;5149322;27;20494;-70
2023/04/16 11:33:52;;;;;;;12.70;12.20;;;14.50;99.90;;;;;;5150431;27;20474;-70
2023/04/16 11:36:19;;;;;;;16.57;15.20;;;14.80;99.90;;;;;;5150715;27;21022;-69
2023/04/16 11:38:47;;;;;;;16.70;15.50;;;15.00;99.90;;;;;;5150281;27;20516;-70
2023/04/16 11:41:20;;;;;;;16.77;15.40;;;14.60;99.90;;;;;;5149079;27;20994;-69
2023/04/16 11:43:47;;;;;;;12.97;12.23;;;14.30;99.90;;;;;;5148315;27;21527;-70
2023/04/16 11:46:15;;;;;;;18.40;16.93;;;14.10;99.90;;;;;;5148887;27;20452;-69
2023/04/16 11:48:49;;;;;;;15.10;14.23;;;14.40;99.90;;;;;;5148141;27;20478;-70
2023/04/16 11:51:17;;;;;;;15.10;14.40;;;14.60;99.90;;;;;;5152484;27;20482;-70
2023/04/16 11:53:49;;;;;;;14.50;13.70;;;14.80;99.90;;;;;;5153117;27;20479;-70
2023/04/16 11:56:16;;;;;;;15.83;14.50;;;14.80;99.90;;;;;;5154579;27;20860;-70
2023/04/16 11:58:43;;;;;;;18.90;16.90;;;14.90;99.90;;;;;;5151446;27;20501;-70
2023/04/16 12:01:10;;;;;;;11.87;11.37;;;14.50;99.90;;;;;;5154087;27;20541;-70
2023/04/16 12:03:42;;;;;;;13.60;12.90;;;14.50;99.90;;;;;;5154230;27;20893;-70
2023/04/16 12:06:10;;;;;;;13.87;13.00;;;14.60;99.90;;;;;;5154222;27;20458;-70
2023/04/16 12:08:38;;;;;;;13.03;12.53;;;14.50;99.90;;;;;;5153905;27;20454;-72
2023/04/16 12:11:05;;;;;;;15.87;14.80;;;14.40;99.90;;;;;;5153724;27;20585;-70
2023/04/16 12:13:38;;;;;;;12.70;12.20;;;14.50;99.90;;;;;;5152385;27;20479;-70
2023/04/16 12:16:18;;;;;;;15.77;14.97;;;14.50;99.90;;;;;;5152360;27;20462;-69
2023/04/16 12:19:02;;;;;;;15.80;14.90;;;14.50;99.90;;;;;;5152053;27;20454;-71
2023/04/16 12:21:40;;;;;;;12.80;12.20;;;14.60;99.90;;;;;;5141627;27;20917;-70
2023/04/16 12:24:09;;;;;;;13.60;12.90;;;14.50;99.90;;;;;;5152617;27;21002;-70
2023/04/16 12:26:38;;;;;;;15.30;14.60;;;14.50;99.90;;;;;;5151565;27;20477;-71
2023/04/16 12:29:19;;;;;;;12.80;12.30;;;14.60;99.90;;;;;;5151014;27;20459;-71
2023/04/16 12:31:47;;;;;;;13.80;13.10;;;14.50;99.90;;;;;;5145456;27;20490;-72
2023/04/16 12:34:17;;;;;;;14.80;13.93;;;14.60;99.90;;;;;;5151358;27;20516;-71
2023/04/16 12:36:45;;;;;;;16.00;15.10;;;14.60;99.90;;;;;;5151517;27;20474;-70
2023/04/16 12:39:12;;;;;;;17.23;15.77;;;14.50;99.90;;;;;;5151638;27;20555;-70
2023/04/16 12:41:40;;;;;;;14.60;13.90;;;14.40;99.90;;;;;;5151192;27;20465;-72
2023/04/16 12:44:10;;;;;;;11.37;10.97;;;14.40;99.90;;;;;;5151393;27;20474;-70
2023/04/16 12:46:38;;;;;;;14.60;13.80;;;14.70;99.90;;;;;;5150876;27;20857;-69
2023/04/16 12:49:05;;;;;;;12.90;12.40;;;15.20;99.90;;;;;;5150888;27;20977;-70
2023/04/16 12:51:35;;;;;;;29.23;14.03;;;15.40;99.90;;;;;;5150694;27;20475;-70